createdAt,value
2022-12-02T00:01:24.479Z,25.92
2022-12-02T00:03:51.823Z,23.42
2022-12-02T00:06:26.688Z,24.77
2022-12-02T00:08:55.368Z,22.08
2022-12-02T00:11:30.087Z,25.35
2022-12-02T00:14:01.303Z,25.95
2022-12-02T00:16:28.640Z,23.73
2022-12-02T00:18:57.039Z,26.38
2022-12-02T00:21:25.131Z,26.42
2022-12-02T00:23:52.451Z,25.02
2022-12-02T00:26:19.773Z,27.42
2022-12-02T00:28:47.146Z,25.38
2022-12-02T00:31:14.654Z,26.05
2022-12-02T00:33:43.456Z,26.92
2022-12-02T00:36:11.002Z,25.25
2022-12-02T00:38:38.253Z,26.85
2022-12-02T00:41:05.788Z,26.48
2022-12-02T00:43:51.630Z,26.13
2022-12-02T00:46:35.285Z,27.85
2022-12-02T00:49:05.012Z,26.60
2022-12-02T00:51:32.499Z,28.35
2022-12-02T00:53:59.760Z,27.25
2022-12-02T00:56:26.967Z,25.92
2022-12-02T00:58:55.761Z,27.63
2022-12-02T01:01:23.355Z,25.20
2022-12-02T01:03:50.637Z,25.35
2022-12-02T01:06:17.984Z,26.00
2022-12-02T01:08:45.416Z,24.63
2022-12-02T01:11:13.030Z,25.23
2022-12-02T01:13:40.513Z,26.58
2022-12-02T01:16:07.991Z,26.27
2022-12-02T01:18:35.878Z,26.02
2022-12-02T01:21:03.233Z,27.58
2022-12-02T01:23:30.486Z,25.85
2022-12-02T01:25:57.929Z,27.75
2022-12-02T01:28:25.354Z,26.40
2022-12-02T01:30:52.828Z,26.77
2022-12-02T01:33:20.190Z,25.90
2022-12-02T01:35:47.538Z,27.25
2022-12-02T01:38:15.065Z,26.13
2022-12-02T01:40:42.996Z,27.38
2022-12-02T01:43:10.372Z,27.15
2022-12-02T01:45:37.955Z,25.80
2022-12-02T01:48:05.796Z,26.35
2022-12-02T01:50:33.718Z,27.60
2022-12-02T01:53:01.175Z,29.88
2022-12-02T01:55:29.164Z,26.88
2022-12-02T01:57:57.753Z,28.30
2022-12-02T02:00:25.650Z,25.38
2022-12-02T02:02:52.991Z,26.38
2022-12-02T02:05:22.430Z,26.88
2022-12-02T02:07:51.236Z,26.48
2022-12-02T02:10:18.906Z,26.92
2022-12-02T02:12:46.895Z,27.52
2022-12-02T02:15:15.565Z,27.83
2022-12-02T02:17:43.142Z,28.50
2022-12-02T02:20:11.995Z,26.42
2022-12-02T02:22:39.326Z,28.75
2022-12-02T02:25:10.422Z,26.50
2022-12-02T02:27:37.816Z,28.65
2022-12-02T02:30:05.931Z,28.85
2022-12-02T02:32:33.246Z,27.00
2022-12-02T02:35:00.480Z,27.63
2022-12-02T02:37:28.067Z,29.60
2022-12-02T02:39:55.365Z,29.25
2022-12-02T02:42:22.675Z,29.58
2022-12-02T02:44:50.218Z,27.73
2022-12-02T02:47:17.648Z,29.42
2022-12-02T02:49:44.956Z,28.17
2022-12-02T02:52:12.573Z,29.83
2022-12-02T02:54:40.037Z,29.05
2022-12-02T02:57:09.617Z,28.38
2022-12-02T02:59:38.302Z,29.63
2022-12-02T03:02:09.128Z,30.85
2022-12-02T03:04:36.603Z,30.85
2022-12-02T03:07:03.991Z,30.23
2022-12-02T03:09:31.316Z,30.48
2022-12-02T03:11:58.834Z,29.55
2022-12-02T03:14:26.666Z,31.58
2022-12-02T03:16:54.446Z,29.55
2022-12-02T03:19:21.895Z,28.77
2022-12-02T03:21:49.198Z,27.73
2022-12-02T03:24:16.584Z,26.60
2022-12-02T03:26:44.009Z,27.17
2022-12-02T03:29:12.324Z,27.33
2022-12-02T03:31:39.728Z,28.20
2022-12-02T03:34:08.091Z,27.48
2022-12-02T03:36:36.107Z,27.90
2022-12-02T03:39:04.061Z,27.15
2022-12-02T03:41:31.335Z,27.20
2022-12-02T03:43:59.089Z,27.80
2022-12-02T03:46:26.867Z,26.92
2022-12-02T03:48:54.441Z,25.55
2022-12-02T03:51:21.680Z,26.20
2022-12-02T03:53:48.945Z,27.77
2022-12-02T03:56:16.341Z,26.42
2022-12-02T03:58:48.065Z,27.55
2022-12-02T04:01:16.053Z,27.10
2022-12-02T04:03:43.635Z,28.17
2022-12-02T04:06:11.098Z,40.00
2022-12-02T04:08:38.406Z,28.00
2022-12-02T04:11:06.424Z,25.73
2022-12-02T04:13:33.737Z,26.25
2022-12-02T04:16:00.990Z,25.42
2022-12-02T04:18:28.330Z,25.92
2022-12-02T04:20:55.566Z,25.98
2022-12-02T04:23:22.795Z,26.77
2022-12-02T04:25:50.076Z,24.70
2022-12-02T04:28:17.293Z,25.23
2022-12-02T04:30:44.595Z,25.38
2022-12-02T04:33:11.837Z,24.63
2022-12-02T04:35:39.132Z,24.55
2022-12-02T04:38:11.715Z,25.77
2022-12-02T04:40:39.782Z,25.95
2022-12-02T04:43:07.352Z,26.38
2022-12-02T04:45:34.518Z,24.85
2022-12-02T04:48:01.820Z,24.38
2022-12-02T04:50:29.174Z,25.27
2022-12-02T04:52:56.388Z,26.35
2022-12-02T04:55:23.662Z,26.13
2022-12-02T04:57:50.867Z,26.42
2022-12-02T05:00:18.163Z,26.25
2022-12-02T05:02:45.441Z,27.27
2022-12-02T05:05:13.017Z,26.08
2022-12-02T05:07:40.361Z,26.25
2022-12-02T05:10:08.330Z,25.08
2022-12-02T05:12:35.684Z,26.70
2022-12-02T05:15:03.112Z,26.70
2022-12-02T05:17:31.085Z,27.55
2022-12-02T05:19:58.349Z,28.55
2022-12-02T05:22:25.554Z,26.70
2022-12-02T05:24:53.081Z,27.23
2022-12-02T05:27:20.506Z,27.00
2022-12-02T05:29:47.718Z,26.02
2022-12-02T05:32:14.932Z,27.40
2022-12-02T05:34:42.285Z,26.73
2022-12-02T05:37:09.562Z,26.65
2022-12-02T05:39:36.773Z,25.17
2022-12-02T05:42:07.351Z,27.08
2022-12-02T05:44:39.357Z,24.52
2022-12-02T05:47:11.170Z,24.40
2022-12-02T05:49:38.840Z,24.33
2022-12-02T05:52:38.729Z,24.75
2022-12-02T05:55:13.503Z,23.15
2022-12-02T05:57:40.765Z,22.02
2022-12-02T06:00:21.384Z,22.08
2022-12-02T06:02:50.427Z,21.92
2022-12-02T06:05:28.690Z,34.75
2022-12-02T06:07:57.605Z,33.15
2022-12-02T06:10:26.849Z,22.02
2022-12-02T06:12:55.044Z,21.90
2022-12-02T06:15:22.692Z,19.85
2022-12-02T06:17:50.257Z,18.80
2022-12-02T06:20:26.934Z,19.85
2022-12-02T06:22:54.137Z,18.80
2022-12-02T06:25:26.104Z,19.48
2022-12-02T06:27:58.249Z,20.90
2022-12-02T06:30:27.795Z,21.05
2022-12-02T06:32:57.097Z,21.35
2022-12-02T06:35:24.308Z,20.90
2022-12-02T06:37:58.429Z,20.77
2022-12-02T06:40:29.340Z,20.95
2022-12-02T06:43:01.441Z,20.05
2022-12-02T06:45:30.991Z,21.00
2022-12-02T06:48:03.286Z,20.40
2022-12-02T06:50:42.410Z,20.60
2022-12-02T06:53:10.295Z,22.27
2022-12-02T06:55:38.012Z,21.65
2022-12-02T06:58:26.182Z,21.67
2022-12-02T07:00:53.722Z,20.27
2022-12-02T07:03:29.811Z,19.25
2022-12-02T07:06:00.036Z,19.27
2022-12-02T07:08:27.161Z,21.15
2022-12-02T07:10:54.292Z,22.85
2022-12-02T07:13:21.840Z,22.33
2022-12-02T07:15:48.954Z,21.80
2022-12-02T07:18:17.697Z,24.15
2022-12-02T07:20:45.753Z,21.38
2022-12-02T07:23:27.595Z,22.88
2022-12-02T07:26:00.614Z,20.05
2022-12-02T07:28:35.544Z,17.83
2022-12-02T07:31:04.175Z,19.70
2022-12-02T07:33:31.398Z,18.40
2022-12-02T07:35:58.559Z,17.25
2022-12-02T07:38:57.143Z,30.15
2022-12-02T07:41:13.907Z,21.27
2022-12-02T07:43:41.184Z,16.70
2022-12-02T07:46:08.562Z,18.80
2022-12-02T07:48:35.811Z,21.00
2022-12-02T07:51:02.950Z,16.60
2022-12-02T07:53:30.188Z,17.65
2022-12-02T07:55:58.512Z,15.02
2022-12-02T07:58:42.033Z,29.35
2022-12-02T08:01:18.862Z,68.47
2022-12-02T08:03:46.778Z,26.20
2022-12-02T08:06:14.037Z,27.30
2022-12-02T08:08:41.238Z,9.82
2022-12-02T08:11:08.361Z,9.02
2022-12-02T08:13:35.550Z,9.68
2022-12-02T08:16:02.648Z,9.15
2022-12-02T08:18:29.830Z,9.45
2022-12-02T08:20:57.012Z,8.43
2022-12-02T08:23:24.181Z,8.13
2022-12-02T08:25:51.322Z,9.15
2022-12-02T08:28:18.511Z,9.07
2022-12-02T08:30:45.698Z,9.38
2022-12-02T08:33:13.076Z,8.35
2022-12-02T08:35:40.346Z,18.33
2022-12-02T08:38:07.964Z,12.45
2022-12-02T08:40:35.435Z,8.90
2022-12-02T08:43:03.205Z,8.45
2022-12-02T08:45:30.421Z,8.10
2022-12-02T08:47:57.611Z,9.50
2022-12-02T08:50:25.165Z,10.15
2022-12-02T08:52:57.919Z,10.38
2022-12-02T08:55:25.629Z,7.30
2022-12-02T08:57:52.776Z,8.23
2022-12-02T09:00:20.323Z,8.50
2022-12-02T09:02:47.562Z,9.05
2022-12-02T09:05:14.897Z,8.60
2022-12-02T09:07:42.150Z,7.97
2022-12-02T09:10:10.464Z,9.68
2022-12-02T09:12:37.627Z,9.73
2022-12-02T09:15:05.348Z,9.82
2022-12-02T09:17:32.525Z,8.65
2022-12-02T09:20:00.056Z,7.63
2022-12-02T09:22:27.231Z,8.60
2022-12-02T09:24:54.641Z,9.75
2022-12-02T09:27:21.920Z,7.43
2022-12-02T09:29:49.096Z,11.60
2022-12-02T09:32:16.346Z,6.03
2022-12-02T09:34:43.457Z,7.78
2022-12-02T09:37:10.620Z,8.85
2022-12-02T09:39:39.252Z,11.32
2022-12-02T09:42:07.969Z,12.25
2022-12-02T09:44:35.396Z,8.10
2022-12-02T09:47:02.857Z,9.20
2022-12-02T09:49:31.074Z,8.63
2022-12-02T09:52:02.784Z,7.78
2022-12-02T09:54:31.029Z,8.10
2022-12-02T09:57:02.515Z,8.70
2022-12-02T09:59:31.378Z,7.20
2022-12-02T10:01:59.870Z,10.93
2022-12-02T10:04:27.246Z,6.05
2022-12-02T10:06:54.626Z,7.30
2022-12-02T10:09:28.175Z,6.15
2022-12-02T10:11:55.441Z,5.78
2022-12-02T10:14:22.913Z,6.28
2022-12-02T10:16:51.487Z,6.68
2022-12-02T10:19:19.466Z,7.80
2022-12-02T10:21:46.887Z,6.63
2022-12-02T10:24:14.289Z,6.10
2022-12-02T10:26:49.836Z,6.90
2022-12-02T10:29:28.665Z,7.47
2022-12-02T10:31:55.893Z,7.53
2022-12-02T10:34:23.474Z,8.40
2022-12-02T10:36:51.117Z,6.15
2022-12-02T10:39:24.393Z,7.95
2022-12-02T10:42:09.602Z,9.68
2022-12-02T10:44:38.519Z,6.47
2022-12-02T10:47:25.723Z,9.13
2022-12-02T10:49:55.605Z,10.32
2022-12-02T10:52:24.712Z,7.00
2022-12-02T10:54:53.831Z,7.50
2022-12-02T10:57:25.131Z,6.47
2022-12-02T10:59:53.216Z,6.18
2022-12-02T11:02:25.086Z,5.65
2022-12-02T11:04:53.102Z,6.72
2022-12-02T11:07:21.779Z,7.57
2022-12-02T11:09:52.460Z,6.50
2022-12-02T11:12:58.071Z,7.22
2022-12-02T11:15:36.054Z,6.47
2022-12-02T11:18:03.748Z,7.80
2022-12-02T11:20:32.873Z,6.63
2022-12-02T11:23:00.055Z,6.63
2022-12-02T11:25:48.025Z,7.68
2022-12-02T11:28:30.260Z,6.60
2022-12-02T11:31:13.921Z,8.43
2022-12-02T11:33:45.359Z,7.93
2022-12-02T11:36:16.549Z,8.10
2022-12-02T11:39:01.363Z,7.78
2022-12-02T11:41:29.917Z,7.90
2022-12-02T11:44:00.254Z,7.50
2022-12-02T11:46:39.354Z,7.22
2022-12-02T11:49:20.473Z,7.18
2022-12-02T11:51:47.722Z,6.43
2022-12-02T11:54:16.502Z,6.80
2022-12-02T11:56:45.074Z,5.88
2022-12-02T11:59:22.349Z,6.90
2022-12-02T12:01:49.771Z,7.93
2022-12-02T12:04:24.455Z,8.38
2022-12-02T12:06:56.011Z,7.15
2022-12-02T12:09:23.526Z,6.53
2022-12-02T12:12:06.815Z,6.85
2022-12-02T12:14:33.942Z,9.00
2022-12-02T12:17:17.063Z,9.73
2022-12-02T12:19:44.227Z,11.50
2022-12-02T12:22:28.153Z,10.02
2022-12-02T12:24:55.625Z,8.05
2022-12-02T12:27:38.629Z,8.10
2022-12-02T12:30:06.156Z,6.78
2022-12-02T12:32:33.418Z,7.13
2022-12-02T12:35:00.730Z,7.20
2022-12-02T12:37:27.927Z,7.28
2022-12-02T12:39:55.071Z,6.85
2022-12-02T12:42:22.258Z,6.95
2022-12-02T12:44:49.802Z,7.35
2022-12-02T12:47:22.164Z,7.70
2022-12-02T12:49:49.861Z,6.97
2022-12-02T12:52:17.107Z,6.43
2022-12-02T12:54:50.684Z,7.68
2022-12-02T12:57:18.256Z,6.35
2022-12-02T12:59:45.415Z,6.60
2022-12-02T13:02:12.823Z,7.55
2022-12-02T13:04:40.065Z,7.72
2022-12-02T13:07:07.224Z,9.07
2022-12-02T13:09:34.468Z,8.32
2022-12-02T13:12:01.623Z,10.20
2022-12-02T13:14:28.862Z,10.23
2022-12-02T13:16:56.065Z,8.98
2022-12-02T13:19:23.305Z,8.07
2022-12-02T13:21:50.641Z,7.60
2022-12-02T13:24:17.962Z,9.25
2022-12-02T13:26:45.162Z,9.45
2022-12-02T13:29:12.424Z,12.77
2022-12-02T13:31:39.737Z,11.90
2022-12-02T13:34:06.955Z,10.32
2022-12-02T13:36:34.063Z,14.02
2022-12-02T13:39:06.001Z,10.43
2022-12-02T13:41:33.850Z,10.90
2022-12-02T13:44:01.070Z,9.73
2022-12-02T13:46:28.307Z,10.40
2022-12-02T13:48:55.503Z,10.35
2022-12-02T13:51:22.735Z,10.48
2022-12-02T13:53:52.046Z,10.50
2022-12-02T13:56:22.916Z,10.65
2022-12-02T13:58:52.458Z,10.73
2022-12-02T14:01:19.812Z,13.25
2022-12-02T14:03:47.153Z,12.73
2022-12-02T14:06:14.502Z,13.40
2022-12-02T14:08:41.730Z,13.45
2022-12-02T14:11:09.072Z,13.40
2022-12-02T14:13:36.208Z,14.00
2022-12-02T14:16:03.531Z,14.45
2022-12-02T14:18:30.800Z,12.70
2022-12-02T14:20:59.038Z,12.85
2022-12-02T14:23:26.215Z,13.38
2022-12-02T14:25:53.419Z,16.73
2022-12-02T14:28:20.627Z,13.32
2022-12-02T14:30:47.840Z,14.18
2022-12-02T14:33:15.240Z,13.85
2022-12-02T14:35:43.457Z,13.05
2022-12-02T14:38:10.669Z,13.40
2022-12-02T14:40:38.016Z,12.55
2022-12-02T14:43:09.848Z,13.13
2022-12-02T14:45:40.038Z,11.90
2022-12-02T14:48:07.290Z,13.60
2022-12-02T14:50:34.550Z,13.55
2022-12-02T14:53:02.015Z,12.88
2022-12-02T14:55:29.408Z,12.82
2022-12-02T14:57:56.628Z,13.75
2022-12-02T15:00:23.891Z,13.68
2022-12-02T15:02:51.115Z,14.93
2022-12-02T15:05:20.501Z,17.90
2022-12-02T15:07:48.244Z,13.77
2022-12-02T15:10:15.889Z,18.15
2022-12-02T15:12:43.143Z,15.90
2022-12-02T15:15:36.985Z,15.88
2022-12-02T15:17:58.015Z,17.42
2022-12-02T15:20:26.568Z,16.90
2022-12-02T15:22:53.976Z,14.98
2022-12-02T15:25:21.191Z,14.20
2022-12-02T15:27:48.461Z,13.95
2022-12-02T15:30:15.861Z,14.18
2022-12-02T15:32:44.889Z,14.57
2022-12-02T15:35:12.317Z,15.70
2022-12-02T15:37:39.700Z,13.75
2022-12-02T15:40:07.910Z,14.30
2022-12-02T15:42:35.114Z,13.63
2022-12-02T15:45:02.405Z,14.55
2022-12-02T15:47:29.782Z,14.45
2022-12-02T15:49:56.960Z,14.48
2022-12-02T15:52:24.194Z,14.20
2022-12-02T15:54:51.690Z,15.02
2022-12-02T15:57:19.112Z,13.73
2022-12-02T15:59:46.315Z,15.48
2022-12-02T16:02:13.622Z,14.02
2022-12-02T16:04:40.862Z,15.25
2022-12-02T16:07:08.235Z,13.80
2022-12-02T16:09:35.430Z,14.45
2022-12-02T16:12:02.785Z,14.70
2022-12-02T16:14:29.968Z,14.25
2022-12-02T16:16:57.303Z,16.10
2022-12-02T16:19:24.520Z,14.20
2022-12-02T16:21:51.687Z,13.65
2022-12-02T16:24:18.903Z,14.10
2022-12-02T16:26:49.582Z,14.32
2022-12-02T16:29:19.488Z,8.68
2022-12-02T16:31:46.769Z,7.57
2022-12-02T16:34:14.009Z,8.40
2022-12-02T16:36:41.269Z,7.43
2022-12-02T16:39:09.635Z,7.78
2022-12-02T16:41:36.870Z,7.53
2022-12-02T16:44:04.136Z,6.50
2022-12-02T16:46:33.285Z,6.40
2022-12-02T16:49:00.667Z,8.05
2022-12-02T16:51:27.964Z,8.50
2022-12-02T16:53:55.141Z,6.72
2022-12-02T16:56:22.351Z,5.57
2022-12-02T16:58:49.481Z,6.30
2022-12-02T17:01:16.825Z,6.35
2022-12-02T17:03:47.979Z,6.78
2022-12-02T17:06:15.194Z,7.00
2022-12-02T17:08:42.390Z,6.22
2022-12-02T17:11:09.587Z,6.97
2022-12-02T17:13:36.834Z,7.93
2022-12-02T17:16:04.153Z,7.05
2022-12-02T17:18:31.444Z,7.60
2022-12-02T17:20:58.634Z,7.25
2022-12-02T17:23:25.819Z,7.00
2022-12-02T17:26:20.427Z,7.85
2022-12-02T17:29:09.161Z,7.40
2022-12-02T17:31:38.850Z,7.13
2022-12-02T17:34:06.114Z,8.25
2022-12-02T17:36:33.477Z,9.32
2022-12-02T17:39:00.729Z,8.88
2022-12-02T17:41:28.173Z,9.23
2022-12-02T17:43:55.425Z,11.60
2022-12-02T17:46:22.703Z,10.90
2022-12-02T17:48:50.010Z,12.88
2022-12-02T17:51:17.905Z,14.10
2022-12-02T17:53:45.312Z,16.75
2022-12-02T17:56:12.658Z,13.57
2022-12-02T17:58:39.849Z,12.85
2022-12-02T18:01:11.656Z,12.45
2022-12-02T18:03:39.824Z,12.55
2022-12-02T18:06:07.316Z,13.10
2022-12-02T18:08:34.512Z,13.10
2022-12-02T18:11:01.988Z,11.70
2022-12-02T18:13:30.035Z,12.52
2022-12-02T18:15:57.392Z,13.63
2022-12-02T18:18:24.638Z,13.25
2022-12-02T18:20:51.797Z,12.52
2022-12-02T18:23:22.501Z,12.70
2022-12-02T18:25:52.222Z,13.05
2022-12-02T18:28:19.381Z,12.65
2022-12-02T18:30:46.557Z,14.73
2022-12-02T18:33:13.822Z,12.95
2022-12-02T18:35:41.002Z,14.25
2022-12-02T18:38:08.270Z,11.57
2022-12-02T18:40:35.642Z,13.05
2022-12-02T18:43:02.866Z,12.45
2022-12-02T18:45:29.995Z,13.82
2022-12-02T18:47:57.186Z,14.23
2022-12-02T18:50:24.343Z,13.68
2022-12-02T18:52:51.554Z,14.48
2022-12-02T18:55:18.742Z,14.93
2022-12-02T18:57:46.023Z,14.88
2022-12-02T19:00:14.255Z,14.13
2022-12-02T19:02:41.604Z,15.27
2022-12-02T19:05:09.316Z,16.67
2022-12-02T19:07:36.973Z,15.63
2022-12-02T19:10:05.436Z,16.88
2022-12-02T19:12:32.721Z,18.35
2022-12-02T19:15:00.058Z,19.25
2022-12-02T19:17:27.289Z,20.10
2022-12-02T19:19:54.526Z,20.15
2022-12-02T19:22:21.948Z,22.45
2022-12-02T19:24:49.303Z,21.77
2022-12-02T19:27:49.471Z,20.50
2022-12-02T19:30:03.783Z,20.33
2022-12-02T19:32:30.962Z,19.42
2022-12-02T19:34:58.105Z,20.02
2022-12-02T19:37:25.394Z,20.33
2022-12-02T19:39:52.932Z,19.60
2022-12-02T19:42:20.361Z,19.70
2022-12-02T19:44:47.580Z,21.55
2022-12-02T19:47:14.767Z,21.15
2022-12-02T19:49:43.151Z,19.67
2022-12-02T19:52:10.447Z,20.23
2022-12-02T19:54:37.622Z,19.17
2022-12-02T19:57:05.030Z,20.30
2022-12-02T19:59:32.258Z,19.08
2022-12-02T20:01:59.522Z,18.80
2022-12-02T20:04:40.647Z,18.52
2022-12-02T20:07:08.448Z,19.33
2022-12-02T20:09:35.675Z,20.00
2022-12-02T20:12:02.962Z,20.10
2022-12-02T20:14:30.158Z,19.63
2022-12-02T20:16:57.330Z,18.92
2022-12-02T20:19:24.688Z,20.25
2022-12-02T20:21:51.841Z,20.52
2022-12-02T20:24:19.070Z,19.60
2022-12-02T20:26:46.345Z,19.63
2022-12-02T20:29:13.656Z,24.15
2022-12-02T20:31:40.888Z,22.52
2022-12-02T20:34:08.150Z,24.95
2022-12-02T20:36:35.348Z,21.58
2022-12-02T20:39:02.765Z,22.98
2022-12-02T20:41:29.983Z,20.45
2022-12-02T20:43:57.129Z,20.83
2022-12-02T20:46:24.790Z,24.45
2022-12-02T20:48:52.111Z,20.52
2022-12-02T20:51:19.312Z,23.02
2022-12-02T20:53:46.638Z,21.40
2022-12-02T20:56:13.809Z,20.33
2022-12-02T20:58:41.127Z,19.98
2022-12-02T21:01:12.464Z,22.30
2022-12-02T21:03:40.155Z,17.88
2022-12-02T21:06:07.586Z,18.90
2022-12-02T21:08:34.900Z,19.10
2022-12-02T21:11:02.229Z,18.60
2022-12-02T21:13:29.605Z,20.58
2022-12-02T21:15:56.946Z,20.38
2022-12-02T21:18:25.218Z,20.80
2022-12-02T21:20:52.668Z,20.73
2022-12-02T21:23:20.046Z,21.20
2022-12-02T21:25:47.263Z,20.85
2022-12-02T21:28:14.439Z,17.95
2022-12-02T21:30:42.460Z,16.83
2022-12-02T21:33:09.695Z,16.52
2022-12-02T21:35:36.948Z,17.50
2022-12-02T21:38:04.165Z,16.63
2022-12-02T21:40:31.331Z,14.68
2022-12-02T21:42:58.625Z,15.52
2022-12-02T21:45:26.542Z,15.20
2022-12-02T21:47:53.843Z,16.73
2022-12-02T21:50:20.997Z,15.02
2022-12-02T21:52:48.242Z,15.00
2022-12-02T21:55:15.490Z,17.35
2022-12-02T21:57:42.634Z,15.80
2022-12-02T22:00:10.187Z,15.65
2022-12-02T22:02:37.408Z,14.77
2022-12-02T22:05:04.652Z,15.73
2022-12-02T22:07:40.861Z,15.88
2022-12-02T22:10:21.580Z,14.88
2022-12-02T22:12:49.819Z,13.48
2022-12-02T22:15:18.281Z,14.40
2022-12-02T22:17:45.704Z,14.40
2022-12-02T22:20:14.155Z,15.40
2022-12-02T22:22:41.341Z,14.60
2022-12-02T22:25:08.938Z,14.70
2022-12-02T22:27:36.122Z,15.25
2022-12-02T22:30:03.300Z,13.65
2022-12-02T22:32:30.558Z,13.60
2022-12-02T22:34:57.729Z,13.93
2022-12-02T22:37:24.920Z,14.63
2022-12-02T22:39:52.082Z,13.40
2022-12-02T22:42:19.246Z,14.48
2022-12-02T22:44:46.422Z,14.82
2022-12-02T22:47:13.542Z,15.50
2022-12-02T22:49:40.696Z,14.80
2022-12-02T22:52:07.947Z,16.25
2022-12-02T22:54:35.269Z,15.00
2022-12-02T22:57:02.449Z,15.50
2022-12-02T22:59:29.595Z,14.98
2022-12-02T23:01:56.987Z,15.48
2022-12-02T23:04:24.227Z,15.05
2022-12-02T23:06:51.518Z,16.00
2022-12-02T23:09:18.701Z,16.15
2022-12-02T23:11:45.824Z,16.45
2022-12-02T23:14:13.031Z,16.73
2022-12-02T23:16:40.246Z,16.30
2022-12-02T23:19:07.424Z,16.42
2022-12-02T23:21:34.596Z,15.38
2022-12-02T23:24:01.742Z,15.90
2022-12-02T23:26:28.942Z,15.98
2022-12-02T23:28:56.091Z,15.77
2022-12-02T23:31:23.314Z,16.83
2022-12-02T23:33:50.577Z,16.63
2022-12-02T23:36:17.830Z,16.65
2022-12-02T23:38:45.725Z,16.55
2022-12-02T23:41:13.035Z,17.10
2022-12-02T23:43:40.215Z,15.50
2022-12-02T23:46:07.458Z,16.08
2022-12-02T23:48:34.751Z,17.95
2022-12-02T23:51:01.906Z,15.55
2022-12-02T23:53:29.072Z,17.25
2022-12-02T23:55:56.282Z,16.13
2022-12-02T23:58:23.419Z,19.10
